sensor_id;sensor_type;location;lat;lon;timestamp;temperature;humidity
67194;DHT22;54121;53.508;49.422;2022-08-21T00:01:38;21.70;36.40
67194;DHT22;54121;53.508;49.422;2022-08-21T00:04:05;21.70;36.60
67194;DHT22;54121;53.508;49.422;2022-08-21T00:06:32;21.70;36.60
67194;DHT22;54121;53.508;49.422;2022-08-21T00:09:00;21.70;36.70
67194;DHT22;54121;53.508;49.422;2022-08-21T00:11:26;21.60;36.70
67194;DHT22;54121;53.508;49.422;2022-08-21T00:13:53;21.60;36.80
67194;DHT22;54121;53.508;49.422;2022-08-21T00:16:19;21.60;36.90
67194;DHT22;54121;53.508;49.422;2022-08-21T00:18:46;21.70;37.00
67194;DHT22;54121;53.508;49.422;2022-08-21T00:21:13;21.60;36.90
67194;DHT22;54121;53.508;49.422;2022-08-21T00:23:39;21.60;36.90
67194;DHT22;54121;53.508;49.422;2022-08-21T00:26:05;21.60;37.00
67194;DHT22;54121;53.508;49.422;2022-08-21T00:28:32;21.60;37.10
67194;DHT22;54121;53.508;49.422;2022-08-21T00:30:58;21.60;37.20
67194;DHT22;54121;53.508;49.422;2022-08-21T00:33:25;21.60;37.40
67194;DHT22;54121;53.508;49.422;2022-08-21T00:35:51;21.60;37.60
67194;DHT22;54121;53.508;49.422;2022-08-21T00:38:18;21.60;37.50
67194;DHT22;54121;53.508;49.422;2022-08-21T00:40:46;21.60;37.60
67194;DHT22;54121;53.508;49.422;2022-08-21T00:43:14;21.50;37.70
67194;DHT22;54121;53.508;49.422;2022-08-21T00:45:41;21.50;37.70
67194;DHT22;54121;53.508;49.422;2022-08-21T00:48:09;21.50;37.80
67194;DHT22;54121;53.508;49.422;2022-08-21T00:50:38;21.50;37.80
67194;DHT22;54121;53.508;49.422;2022-08-21T00:53:06;21.50;37.70
67194;DHT22;54121;53.508;49.422;2022-08-21T00:55:34;21.50;37.80
67194;DHT22;54121;53.508;49.422;2022-08-21T00:58:02;21.50;37.60
67194;DHT22;54121;53.508;49.422;2022-08-21T01:00:31;21.50;37.90
67194;DHT22;54121;53.508;49.422;2022-08-21T01:02:58;21.50;37.80
67194;DHT22;54121;53.508;49.422;2022-08-21T01:05:24;21.50;37.90
67194;DHT22;54121;53.508;49.422;2022-08-21T01:07:51;21.40;37.90
67194;DHT22;54121;53.508;49.422;2022-08-21T01:10:17;21.50;38.10
67194;DHT22;54121;53.508;49.422;2022-08-21T01:12:44;21.40;38.00
67194;DHT22;54121;53.508;49.422;2022-08-21T01:15:10;21.40;37.70
67194;DHT22;54121;53.508;49.422;2022-08-21T01:17:39;21.50;37.70
67194;DHT22;54121;53.508;49.422;2022-08-21T01:20:08;21.40;37.60
67194;DHT22;54121;53.508;49.422;2022-08-21T01:22:34;21.40;38.00
67194;DHT22;54121;53.508;49.422;2022-08-21T01:25:03;21.50;38.00
67194;DHT22;54121;53.508;49.422;2022-08-21T01:27:30;21.40;37.60
67194;DHT22;54121;53.508;49.422;2022-08-21T01:29:57;21.40;37.70
67194;DHT22;54121;53.508;49.422;2022-08-21T01:32:25;21.40;37.80
67194;DHT22;54121;53.508;49.422;2022-08-21T01:34:51;21.40;37.80
67194;DHT22;54121;53.508;49.422;2022-08-21T01:37:18;21.30;38.00
67194;DHT22;54121;53.508;49.422;2022-08-21T01:39:45;21.20;38.20
67194;DHT22;54121;53.508;49.422;2022-08-21T01:42:12;21.30;38.30
67194;DHT22;54121;53.508;49.422;2022-08-21T01:44:38;21.30;38.50
67194;DHT22;54121;53.508;49.422;2022-08-21T01:47:05;21.30;38.60
67194;DHT22;54121;53.508;49.422;2022-08-21T01:49:32;21.30;38.50
67194;DHT22;54121;53.508;49.422;2022-08-21T01:51:58;21.30;38.50
67194;DHT22;54121;53.508;49.422;2022-08-21T01:54:24;21.30;38.60
67194;DHT22;54121;53.508;49.422;2022-08-21T01:56:51;21.30;38.60
67194;DHT22;54121;53.508;49.422;2022-08-21T01:59:18;21.40;38.60
67194;DHT22;54121;53.508;49.422;2022-08-21T02:01:45;21.40;38.70
67194;DHT22;54121;53.508;49.422;2022-08-21T02:04:11;21.40;38.70
67194;DHT22;54121;53.508;49.422;2022-08-21T02:06:37;21.40;38.90
67194;DHT22;54121;53.508;49.422;2022-08-21T02:09:04;21.50;38.90
67194;DHT22;54121;53.508;49.422;2022-08-21T02:11:31;21.70;38.70
67194;DHT22;54121;53.508;49.422;2022-08-21T02:13:57;21.90;38.50
67194;DHT22;54121;53.508;49.422;2022-08-21T02:16:23;22.20;37.70
67194;DHT22;54121;53.508;49.422;2022-08-21T02:18:50;22.50;36.80
67194;DHT22;54121;53.508;49.422;2022-08-21T02:21:16;22.80;36.20
67194;DHT22;54121;53.508;49.422;2022-08-21T02:23:42;23.10;35.50
67194;DHT22;54121;53.508;49.422;2022-08-21T02:26:09;23.40;35.00
67194;DHT22;54121;53.508;49.422;2022-08-21T02:28:35;23.60;34.30
67194;DHT22;54121;53.508;49.422;2022-08-21T02:31:02;23.80;33.80
67194;DHT22;54121;53.508;49.422;2022-08-21T02:33:28;24.10;33.20
67194;DHT22;54121;53.508;49.422;2022-08-21T02:35:54;24.30;32.60
67194;DHT22;54121;53.508;49.422;2022-08-21T02:38:23;24.60;32.10
67194;DHT22;54121;53.508;49.422;2022-08-21T02:40:50;24.90;31.40
67194;DHT22;54121;53.508;49.422;2022-08-21T02:43:17;25.50;30.60
67194;DHT22;54121;53.508;49.422;2022-08-21T02:45:43;25.60;30.40
67194;DHT22;54121;53.508;49.422;2022-08-21T02:48:11;25.80;30.30
67194;DHT22;54121;53.508;49.422;2022-08-21T02:50:39;26.00;30.00
67194;DHT22;54121;53.508;49.422;2022-08-21T02:53:05;26.40;29.40
67194;DHT22;54121;53.508;49.422;2022-08-21T02:55:33;26.90;28.60
67194;DHT22;54121;53.508;49.422;2022-08-21T02:57:59;27.20;27.90
67194;DHT22;54121;53.508;49.422;2022-08-21T03:00:27;27.60;27.30
67194;DHT22;54121;53.508;49.422;2022-08-21T03:02:53;27.80;26.90
67194;DHT22;54121;53.508;49.422;2022-08-21T03:05:21;28.00;26.50
67194;DHT22;54121;53.508;49.422;2022-08-21T03:07:48;28.40;26.10
67194;DHT22;54121;53.508;49.422;2022-08-21T03:10:15;28.70;25.50
67194;DHT22;54121;53.508;49.422;2022-08-21T03:12:41;29.10;25.10
67194;DHT22;54121;53.508;49.422;2022-08-21T03:15:09;29.40;24.90
67194;DHT22;54121;53.508;49.422;2022-08-21T03:17:36;29.80;24.80
67194;DHT22;54121;53.508;49.422;2022-08-21T03:20:03;30.10;24.40
67194;DHT22;54121;53.508;49.422;2022-08-21T03:22:29;30.50;24.00
67194;DHT22;54121;53.508;49.422;2022-08-21T03:24:55;31.00;23.20
67194;DHT22;54121;53.508;49.422;2022-08-21T03:27:23;31.40;23.00
67194;DHT22;54121;53.508;49.422;2022-08-21T03:29:50;31.90;22.40
67194;DHT22;54121;53.508;49.422;2022-08-21T03:32:16;32.00;22.30
67194;DHT22;54121;53.508;49.422;2022-08-21T03:34:42;31.80;21.70
67194;DHT22;54121;53.508;49.422;2022-08-21T03:37:08;32.70;21.20
67194;DHT22;54121;53.508;49.422;2022-08-21T03:39:35;33.10;20.30
67194;DHT22;54121;53.508;49.422;2022-08-21T03:42:02;34.10;19.40
67194;DHT22;54121;53.508;49.422;2022-08-21T03:44:28;34.60;19.10
67194;DHT22;54121;53.508;49.422;2022-08-21T03:46:55;34.20;19.10
67194;DHT22;54121;53.508;49.422;2022-08-21T03:49:22;34.20;19.20
67194;DHT22;54121;53.508;49.422;2022-08-21T03:51:48;34.40;19.10
67194;DHT22;54121;53.508;49.422;2022-08-21T03:54:14;34.80;18.50
67194;DHT22;54121;53.508;49.422;2022-08-21T03:56:40;35.00;18.30
67194;DHT22;54121;53.508;49.422;2022-08-21T03:59:07;35.40;17.90
67194;DHT22;54121;53.508;49.422;2022-08-21T04:01:33;35.30;17.80
67194;DHT22;54121;53.508;49.422;2022-08-21T04:04:00;35.80;17.50
67194;DHT22;54121;53.508;49.422;2022-08-21T04:06:26;36.00;17.30
67194;DHT22;54121;53.508;49.422;2022-08-21T04:08:52;36.30;16.90
67194;DHT22;54121;53.508;49.422;2022-08-21T04:11:19;36.10;17.40
67194;DHT22;54121;53.508;49.422;2022-08-21T04:13:45;36.30;17.40
67194;DHT22;54121;53.508;49.422;2022-08-21T04:16:12;36.40;17.10
67194;DHT22;54121;53.508;49.422;2022-08-21T04:18:39;36.60;17.20
67194;DHT22;54121;53.508;49.422;2022-08-21T04:21:05;36.90;16.80
67194;DHT22;54121;53.508;49.422;2022-08-21T04:23:32;37.00;16.50
67194;DHT22;54121;53.508;49.422;2022-08-21T04:25:58;37.30;16.20
67194;DHT22;54121;53.508;49.422;2022-08-21T04:28:25;37.80;15.90
67194;DHT22;54121;53.508;49.422;2022-08-21T04:30:52;38.80;15.20
67194;DHT22;54121;53.508;49.422;2022-08-21T04:33:19;38.50;15.00
67194;DHT22;54121;53.508;49.422;2022-08-21T04:35:45;38.90;15.00
67194;DHT22;54121;53.508;49.422;2022-08-21T04:38:12;39.10;14.60
67194;DHT22;54121;53.508;49.422;2022-08-21T04:40:38;38.70;14.80
67194;DHT22;54121;53.508;49.422;2022-08-21T04:43:05;38.90;14.90
67194;DHT22;54121;53.508;49.422;2022-08-21T04:45:36;39.00;14.90
67194;DHT22;54121;53.508;49.422;2022-08-21T04:48:04;39.00;14.70
67194;DHT22;54121;53.508;49.422;2022-08-21T04:53:16;39.90;14.00
67194;DHT22;54121;53.508;49.422;2022-08-21T04:55:43;39.80;14.10
67194;DHT22;54121;53.508;49.422;2022-08-21T04:58:10;40.40;13.70
67194;DHT22;54121;53.508;49.422;2022-08-21T05:00:37;39.80;14.00
67194;DHT22;54121;53.508;49.422;2022-08-21T05:03:03;40.00;14.00
67194;DHT22;54121;53.508;49.422;2022-08-21T05:05:31;40.80;13.30
67194;DHT22;54121;53.508;49.422;2022-08-21T05:07:57;40.70;13.30
67194;DHT22;54121;53.508;49.422;2022-08-21T05:10:25;40.60;13.60
67194;DHT22;54121;53.508;49.422;2022-08-21T05:12:51;40.80;13.30
67194;DHT22;54121;53.508;49.422;2022-08-21T05:15:17;40.60;13.60
67194;DHT22;54121;53.508;49.422;2022-08-21T05:17:44;41.30;12.90
67194;DHT22;54121;53.508;49.422;2022-08-21T05:20:10;41.30;12.90
67194;DHT22;54121;53.508;49.422;2022-08-21T05:22:37;41.00;13.10
67194;DHT22;54121;53.508;49.422;2022-08-21T05:25:04;41.20;12.50
67194;DHT22;54121;53.508;49.422;2022-08-21T05:27:31;42.00;12.10
67194;DHT22;54121;53.508;49.422;2022-08-21T05:29:58;41.90;12.20
67194;DHT22;54121;53.508;49.422;2022-08-21T05:32:24;42.20;11.90
67194;DHT22;54121;53.508;49.422;2022-08-21T05:34:51;42.40;12.20
67194;DHT22;54121;53.508;49.422;2022-08-21T05:37:17;41.90;12.20
67194;DHT22;54121;53.508;49.422;2022-08-21T05:39:43;42.30;12.40
67194;DHT22;54121;53.508;49.422;2022-08-21T05:42:09;42.40;11.90
67194;DHT22;54121;53.508;49.422;2022-08-21T05:44:36;42.70;12.20
67194;DHT22;54121;53.508;49.422;2022-08-21T05:47:03;42.40;11.90
67194;DHT22;54121;53.508;49.422;2022-08-21T05:49:29;42.60;12.30
67194;DHT22;54121;53.508;49.422;2022-08-21T05:51:55;42.50;12.20
67194;DHT22;54121;53.508;49.422;2022-08-21T05:54:22;42.40;12.20
67194;DHT22;54121;53.508;49.422;2022-08-21T05:56:48;42.50;12.20
67194;DHT22;54121;53.508;49.422;2022-08-21T05:59:14;43.60;11.20
67194;DHT22;54121;53.508;49.422;2022-08-21T06:01:40;43.40;11.40
67194;DHT22;54121;53.508;49.422;2022-08-21T06:04:07;43.80;11.60
67194;DHT22;54121;53.508;49.422;2022-08-21T06:06:33;43.10;11.60
67194;DHT22;54121;53.508;49.422;2022-08-21T06:08:59;42.90;12.10
67194;DHT22;54121;53.508;49.422;2022-08-21T06:11:25;43.00;12.00
67194;DHT22;54121;53.508;49.422;2022-08-21T06:13:52;43.60;11.60
67194;DHT22;54121;53.508;49.422;2022-08-21T06:16:18;43.70;11.00
67194;DHT22;54121;53.508;49.422;2022-08-21T06:18:44;43.50;11.00
67194;DHT22;54121;53.508;49.422;2022-08-21T06:21:11;43.80;11.00
67194;DHT22;54121;53.508;49.422;2022-08-21T06:23:37;44.10;10.90
67194;DHT22;54121;53.508;49.422;2022-08-21T06:26:04;44.40;10.30
67194;DHT22;54121;53.508;49.422;2022-08-21T06:28:31;45.20;9.60
67194;DHT22;54121;53.508;49.422;2022-08-21T06:30:57;45.20;9.70
67194;DHT22;54121;53.508;49.422;2022-08-21T06:33:24;45.20;9.50
67194;DHT22;54121;53.508;49.422;2022-08-21T06:35:51;44.10;10.30
67194;DHT22;54121;53.508;49.422;2022-08-21T06:38:17;45.20;9.90
67194;DHT22;54121;53.508;49.422;2022-08-21T06:40:43;45.30;9.60
67194;DHT22;54121;53.508;49.422;2022-08-21T06:43:11;44.90;10.00
67194;DHT22;54121;53.508;49.422;2022-08-21T06:45:38;45.20;9.70
67194;DHT22;54121;53.508;49.422;2022-08-21T06:48:04;44.50;10.60
67194;DHT22;54121;53.508;49.422;2022-08-21T06:50:33;44.20;10.90
67194;DHT22;54121;53.508;49.422;2022-08-21T06:53:00;44.50;10.10
67194;DHT22;54121;53.508;49.422;2022-08-21T06:55:27;44.10;10.90
67194;DHT22;54121;53.508;49.422;2022-08-21T06:57:53;44.10;10.70
67194;DHT22;54121;53.508;49.422;2022-08-21T07:00:19;44.20;11.60
67194;DHT22;54121;53.508;49.422;2022-08-21T07:02:46;44.40;10.20
67194;DHT22;54121;53.508;49.422;2022-08-21T07:05:13;44.50;10.00
67194;DHT22;54121;53.508;49.422;2022-08-21T07:07:39;44.50;9.90
67194;DHT22;54121;53.508;49.422;2022-08-21T07:10:05;44.50;9.50
67194;DHT22;54121;53.508;49.422;2022-08-21T07:12:31;44.50;9.90
67194;DHT22;54121;53.508;49.422;2022-08-21T07:14:57;44.20;10.00
67194;DHT22;54121;53.508;49.422;2022-08-21T07:17:24;44.60;9.70
67194;DHT22;54121;53.508;49.422;2022-08-21T07:19:50;44.50;9.50
67194;DHT22;54121;53.508;49.422;2022-08-21T07:22:18;44.10;9.80
67194;DHT22;54121;53.508;49.422;2022-08-21T07:24:45;44.20;9.90
67194;DHT22;54121;53.508;49.422;2022-08-21T07:27:12;44.10;10.00
67194;DHT22;54121;53.508;49.422;2022-08-21T07:29:38;44.30;10.10
67194;DHT22;54121;53.508;49.422;2022-08-21T07:32:04;44.70;9.30
67194;DHT22;54121;53.508;49.422;2022-08-21T07:34:31;44.70;9.20
67194;DHT22;54121;53.508;49.422;2022-08-21T07:36:57;44.50;9.20
67194;DHT22;54121;53.508;49.422;2022-08-21T07:39:24;44.30;9.50
67194;DHT22;54121;53.508;49.422;2022-08-21T07:41:50;43.80;9.80
67194;DHT22;54121;53.508;49.422;2022-08-21T07:44:17;43.50;10.40
67194;DHT22;54121;53.508;49.422;2022-08-21T07:46:43;45.10;9.00
67194;DHT22;54121;53.508;49.422;2022-08-21T07:49:09;45.00;8.80
67194;DHT22;54121;53.508;49.422;2022-08-21T07:51:35;44.20;9.70
67194;DHT22;54121;53.508;49.422;2022-08-21T07:54:01;44.10;10.00
67194;DHT22;54121;53.508;49.422;2022-08-21T07:56:29;43.70;10.10
67194;DHT22;54121;53.508;49.422;2022-08-21T07:58:56;42.80;10.40
67194;DHT22;54121;53.508;49.422;2022-08-21T08:01:23;43.30;10.60
67194;DHT22;54121;53.508;49.422;2022-08-21T08:03:50;43.20;10.50
67194;DHT22;54121;53.508;49.422;2022-08-21T08:06:16;43.10;10.70
67194;DHT22;54121;53.508;49.422;2022-08-21T08:08:44;43.30;10.50
67194;DHT22;54121;53.508;49.422;2022-08-21T08:11:11;42.80;10.90
67194;DHT22;54121;53.508;49.422;2022-08-21T08:13:38;42.50;11.20
67194;DHT22;54121;53.508;49.422;2022-08-21T08:16:05;42.80;11.20
67194;DHT22;54121;53.508;49.422;2022-08-21T08:18:31;43.40;10.50
67194;DHT22;54121;53.508;49.422;2022-08-21T08:20:58;43.10;10.60
67194;DHT22;54121;53.508;49.422;2022-08-21T08:23:24;43.00;10.60
67194;DHT22;54121;53.508;49.422;2022-08-21T08:25:51;43.00;10.40
67194;DHT22;54121;53.508;49.422;2022-08-21T08:28:17;43.10;10.30
67194;DHT22;54121;53.508;49.422;2022-08-21T08:30:44;43.50;10.10
67194;DHT22;54121;53.508;49.422;2022-08-21T08:33:11;43.00;10.40
67194;DHT22;54121;53.508;49.422;2022-08-21T08:35:37;42.60;10.60
67194;DHT22;54121;53.508;49.422;2022-08-21T08:38:03;42.60;11.00
67194;DHT22;54121;53.508;49.422;2022-08-21T08:43:00;43.20;10.70
67194;DHT22;54121;53.508;49.422;2022-08-21T08:45:26;43.30;10.30
67194;DHT22;54121;53.508;49.422;2022-08-21T08:47:53;43.50;10.30
67194;DHT22;54121;53.508;49.422;2022-08-21T08:53:12;42.40;10.90
67194;DHT22;54121;53.508;49.422;2022-08-21T08:55:37;42.90;10.90
67194;DHT22;54121;53.508;49.422;2022-08-21T08:58:05;42.60;11.00
67194;DHT22;54121;53.508;49.422;2022-08-21T09:00:32;43.00;10.40
67194;DHT22;54121;53.508;49.422;2022-08-21T09:03:00;43.00;10.50
67194;DHT22;54121;53.508;49.422;2022-08-21T09:05:28;43.00;10.40
67194;DHT22;54121;53.508;49.422;2022-08-21T09:08:10;43.40;10.10
67194;DHT22;54121;53.508;49.422;2022-08-21T09:13:16;43.50;9.90
67194;DHT22;54121;53.508;49.422;2022-08-21T09:23:44;43.60;10.30
67194;DHT22;54121;53.508;49.422;2022-08-21T09:26:14;43.90;10.10
67194;DHT22;54121;53.508;49.422;2022-08-21T09:28:41;44.40;9.60
67194;DHT22;54121;53.508;49.422;2022-08-21T09:31:16;44.20;9.60
67194;DHT22;54121;53.508;49.422;2022-08-21T09:33:47;43.50;10.30
67194;DHT22;54121;53.508;49.422;2022-08-21T09:36:22;44.10;9.70
67194;DHT22;54121;53.508;49.422;2022-08-21T09:38:52;43.90;10.00
67194;DHT22;54121;53.508;49.422;2022-08-21T09:41:25;44.10;9.80
67194;DHT22;54121;53.508;49.422;2022-08-21T09:43:53;44.70;9.30
67194;DHT22;54121;53.508;49.422;2022-08-21T09:46:21;44.10;9.80
67194;DHT22;54121;53.508;49.422;2022-08-21T09:48:50;44.40;9.70
67194;DHT22;54121;53.508;49.422;2022-08-21T09:51:18;44.20;9.70
67194;DHT22;54121;53.508;49.422;2022-08-21T09:53:46;44.70;9.80
67194;DHT22;54121;53.508;49.422;2022-08-21T09:56:18;45.30;8.80
67194;DHT22;54121;53.508;49.422;2022-08-21T09:59:12;45.50;8.60
67194;DHT22;54121;53.508;49.422;2022-08-21T10:01:46;45.20;8.90
67194;DHT22;54121;53.508;49.422;2022-08-21T10:04:13;45.10;8.80
67194;DHT22;54121;53.508;49.422;2022-08-21T10:06:39;45.20;9.00
67194;DHT22;54121;53.508;49.422;2022-08-21T10:09:13;45.60;8.60
67194;DHT22;54121;53.508;49.422;2022-08-21T10:11:39;45.20;8.90
67194;DHT22;54121;53.508;49.422;2022-08-21T10:14:10;45.00;8.90
67194;DHT22;54121;53.508;49.422;2022-08-21T10:19:15;45.10;9.00
67194;DHT22;54121;53.508;49.422;2022-08-21T10:24:32;45.20;10.30
67194;DHT22;54121;53.508;49.422;2022-08-21T10:27:06;46.20;7.90
67194;DHT22;54121;53.508;49.422;2022-08-21T10:32:14;46.30;7.90
67194;DHT22;54121;53.508;49.422;2022-08-21T10:40:22;46.40;8.60
67194;DHT22;54121;53.508;49.422;2022-08-21T10:42:55;46.60;7.60
67194;DHT22;54121;53.508;49.422;2022-08-21T10:48:01;46.10;8.10
67194;DHT22;54121;53.508;49.422;2022-08-21T10:52:59;47.70;7.10
67194;DHT22;54121;53.508;49.422;2022-08-21T10:59:19;47.30;7.00
67194;DHT22;54121;53.508;49.422;2022-08-21T11:01:27;47.10;7.10
67194;DHT22;54121;53.508;49.422;2022-08-21T11:03:59;46.90;6.40
67194;DHT22;54121;53.508;49.422;2022-08-21T11:06:27;47.30;6.20
67194;DHT22;54121;53.508;49.422;2022-08-21T11:08:57;46.80;6.60
67194;DHT22;54121;53.508;49.422;2022-08-21T11:11:26;47.30;6.40
67194;DHT22;54121;53.508;49.422;2022-08-21T11:13:55;47.60;6.20
67194;DHT22;54121;53.508;49.422;2022-08-21T11:16:33;47.50;6.20
67194;DHT22;54121;53.508;49.422;2022-08-21T11:21:44;47.50;6.70
67194;DHT22;54121;53.508;49.422;2022-08-21T11:24:15;47.40;6.60
67194;DHT22;54121;53.508;49.422;2022-08-21T11:29:20;48.30;5.70
67194;DHT22;54121;53.508;49.422;2022-08-21T11:31:52;49.00;5.00
67194;DHT22;54121;53.508;49.422;2022-08-21T11:37:17;48.50;5.60
67194;DHT22;54121;53.508;49.422;2022-08-21T11:42:23;49.00;5.60
67194;DHT22;54121;53.508;49.422;2022-08-21T11:44:56;49.70;4.90
67194;DHT22;54121;53.508;49.422;2022-08-21T11:52:26;49.50;5.00
67194;DHT22;54121;53.508;49.422;2022-08-21T11:54:59;49.00;5.20
67194;DHT22;54121;53.508;49.422;2022-08-21T11:57:30;49.00;4.90
67194;DHT22;54121;53.508;49.422;2022-08-21T12:02:25;48.30;5.00
67194;DHT22;54121;53.508;49.422;2022-08-21T12:04:59;48.10;5.30
67194;DHT22;54121;53.508;49.422;2022-08-21T12:07:30;49.90;4.40
67194;DHT22;54121;53.508;49.422;2022-08-21T12:09:57;48.60;5.00
67194;DHT22;54121;53.508;49.422;2022-08-21T12:15:04;49.30;4.60
67194;DHT22;54121;53.508;49.422;2022-08-21T12:17:40;49.20;5.10
67194;DHT22;54121;53.508;49.422;2022-08-21T12:22:54;49.00;4.80
67194;DHT22;54121;53.508;49.422;2022-08-21T12:25:35;49.60;4.70
67194;DHT22;54121;53.508;49.422;2022-08-21T12:28:02;47.90;5.60
67194;DHT22;54121;53.508;49.422;2022-08-21T12:30:34;48.70;5.30
67194;DHT22;54121;53.508;49.422;2022-08-21T12:33:04;48.80;4.70
67194;DHT22;54121;53.508;49.422;2022-08-21T12:35:36;48.40;4.90
67194;DHT22;54121;53.508;49.422;2022-08-21T12:40:40;48.90;4.70
67194;DHT22;54121;53.508;49.422;2022-08-21T12:43:11;48.20;4.70
67194;DHT22;54121;53.508;49.422;2022-08-21T12:45:44;48.40;4.80
67194;DHT22;54121;53.508;49.422;2022-08-21T12:48:12;48.00;4.80
67194;DHT22;54121;53.508;49.422;2022-08-21T12:56:02;48.10;4.60
67194;DHT22;54121;53.508;49.422;2022-08-21T12:58:30;48.70;4.60
67194;DHT22;54121;53.508;49.422;2022-08-21T13:00:59;49.40;4.10
67194;DHT22;54121;53.508;49.422;2022-08-21T13:03:26;48.80;4.20
67194;DHT22;54121;53.508;49.422;2022-08-21T13:05:53;48.60;4.30
67194;DHT22;54121;53.508;49.422;2022-08-21T13:08:21;49.00;4.10
67194;DHT22;54121;53.508;49.422;2022-08-21T13:10:49;48.30;4.50
67194;DHT22;54121;53.508;49.422;2022-08-21T13:13:22;48.10;4.50
67194;DHT22;54121;53.508;49.422;2022-08-21T13:15:49;48.40;4.50
67194;DHT22;54121;53.508;49.422;2022-08-21T13:18:23;48.10;4.70
67194;DHT22;54121;53.508;49.422;2022-08-21T13:20:49;48.60;4.40
67194;DHT22;54121;53.508;49.422;2022-08-21T13:25:45;48.80;4.50
67194;DHT22;54121;53.508;49.422;2022-08-21T13:28:12;48.50;4.30
67194;DHT22;54121;53.508;49.422;2022-08-21T13:30:47;47.80;4.90
67194;DHT22;54121;53.508;49.422;2022-08-21T13:33:16;47.60;4.90
67194;DHT22;54121;53.508;49.422;2022-08-21T13:35:50;47.50;5.00
67194;DHT22;54121;53.508;49.422;2022-08-21T13:38:20;46.90;5.60
67194;DHT22;54121;53.508;49.422;2022-08-21T13:40:49;47.60;5.50
67194;DHT22;54121;53.508;49.422;2022-08-21T13:43:17;48.20;4.70
67194;DHT22;54121;53.508;49.422;2022-08-21T13:45:51;47.20;5.60
67194;DHT22;54121;53.508;49.422;2022-08-21T13:48:18;47.70;5.10
67194;DHT22;54121;53.508;49.422;2022-08-21T13:50:44;47.80;5.00
67194;DHT22;54121;53.508;49.422;2022-08-21T13:55:49;47.10;5.50
67194;DHT22;54121;53.508;49.422;2022-08-21T13:58:24;47.20;5.50
67194;DHT22;54121;53.508;49.422;2022-08-21T14:00:50;47.30;5.50
67194;DHT22;54121;53.508;49.422;2022-08-21T14:03:34;47.10;5.80
67194;DHT22;54121;53.508;49.422;2022-08-21T14:06:02;47.10;5.60
67194;DHT22;54121;53.508;49.422;2022-08-21T14:08:33;47.20;5.70
67194;DHT22;54121;53.508;49.422;2022-08-21T14:11:00;47.10;5.60
67194;DHT22;54121;53.508;49.422;2022-08-21T14:13:41;46.90;5.70
67194;DHT22;54121;53.508;49.422;2022-08-21T14:19:24;46.80;5.90
67194;DHT22;54121;53.508;49.422;2022-08-21T14:21:32;46.40;5.80
67194;DHT22;54121;53.508;49.422;2022-08-21T14:24:02;46.60;5.60
67194;DHT22;54121;53.508;49.422;2022-08-21T14:26:28;45.70;6.20
67194;DHT22;54121;53.508;49.422;2022-08-21T14:28:57;46.20;5.80
67194;DHT22;54121;53.508;49.422;2022-08-21T14:31:27;46.20;5.90
67194;DHT22;54121;53.508;49.422;2022-08-21T14:33:55;46.40;5.80
67194;DHT22;54121;53.508;49.422;2022-08-21T14:36:21;45.70;6.20
67194;DHT22;54121;53.508;49.422;2022-08-21T14:38:47;45.60;6.40
67194;DHT22;54121;53.508;49.422;2022-08-21T14:41:23;45.40;6.50
67194;DHT22;54121;53.508;49.422;2022-08-21T14:43:51;45.40;6.40
67194;DHT22;54121;53.508;49.422;2022-08-21T14:46:26;44.90;6.80
67194;DHT22;54121;53.508;49.422;2022-08-21T14:48:52;44.40;7.10
67194;DHT22;54121;53.508;49.422;2022-08-21T14:51:19;44.70;6.70
67194;DHT22;54121;53.508;49.422;2022-08-21T14:53:45;44.40;7.10
67194;DHT22;54121;53.508;49.422;2022-08-21T14:56:12;44.40;7.00
67194;DHT22;54121;53.508;49.422;2022-08-21T14:58:40;44.00;7.40
67194;DHT22;54121;53.508;49.422;2022-08-21T15:01:07;43.50;7.70
67194;DHT22;54121;53.508;49.422;2022-08-21T15:03:34;43.20;8.10
67194;DHT22;54121;53.508;49.422;2022-08-21T15:06:01;43.20;8.00
67194;DHT22;54121;53.508;49.422;2022-08-21T15:08:28;42.80;8.40
67194;DHT22;54121;53.508;49.422;2022-08-21T15:10:54;42.50;8.60
67194;DHT22;54121;53.508;49.422;2022-08-21T15:13:21;42.20;9.00
67194;DHT22;54121;53.508;49.422;2022-08-21T15:15:48;41.80;9.20
67194;DHT22;54121;53.508;49.422;2022-08-21T15:18:15;41.70;9.30
67194;DHT22;54121;53.508;49.422;2022-08-21T15:20:41;41.40;9.60
67194;DHT22;54121;53.508;49.422;2022-08-21T15:23:07;41.20;9.90
67194;DHT22;54121;53.508;49.422;2022-08-21T15:25:34;40.80;10.00
67194;DHT22;54121;53.508;49.422;2022-08-21T15:28:01;40.80;10.10
67194;DHT22;54121;53.508;49.422;2022-08-21T15:30:28;40.90;10.00
67194;DHT22;54121;53.508;49.422;2022-08-21T15:32:56;40.60;10.40
67194;DHT22;54121;53.508;49.422;2022-08-21T15:35:22;40.20;10.80
67194;DHT22;54121;53.508;49.422;2022-08-21T15:37:49;39.90;11.00
67194;DHT22;54121;53.508;49.422;2022-08-21T15:40:15;39.50;11.40
67194;DHT22;54121;53.508;49.422;2022-08-21T15:42:41;39.30;11.70
67194;DHT22;54121;53.508;49.422;2022-08-21T15:45:08;39.10;12.00
67194;DHT22;54121;53.508;49.422;2022-08-21T15:47:35;38.70;12.20
67194;DHT22;54121;53.508;49.422;2022-08-21T15:50:03;38.30;12.70
67194;DHT22;54121;53.508;49.422;2022-08-21T15:52:30;38.10;12.80
67194;DHT22;54121;53.508;49.422;2022-08-21T15:54:57;38.20;12.70
67194;DHT22;54121;53.508;49.422;2022-08-21T15:57:23;37.90;13.00
67194;DHT22;54121;53.508;49.422;2022-08-21T15:59:51;37.70;13.20
67194;DHT22;54121;53.508;49.422;2022-08-21T16:02:22;37.40;13.60
67194;DHT22;54121;53.508;49.422;2022-08-21T16:04:49;37.00;14.10
67194;DHT22;54121;53.508;49.422;2022-08-21T16:07:15;36.80;14.40
67194;DHT22;54121;53.508;49.422;2022-08-21T16:09:42;36.70;14.50
67194;DHT22;54121;53.508;49.422;2022-08-21T16:12:09;36.80;14.40
67194;DHT22;54121;53.508;49.422;2022-08-21T16:14:36;36.70;14.40
67194;DHT22;54121;53.508;49.422;2022-08-21T16:17:06;36.50;14.80
67194;DHT22;54121;53.508;49.422;2022-08-21T16:19:33;36.30;15.10
67194;DHT22;54121;53.508;49.422;2022-08-21T16:22:00;36.20;15.10
67194;DHT22;54121;53.508;49.422;2022-08-21T16:24:26;36.00;15.40
67194;DHT22;54121;53.508;49.422;2022-08-21T16:26:52;35.90;15.70
67194;DHT22;54121;53.508;49.422;2022-08-21T16:29:19;35.90;15.70
67194;DHT22;54121;53.508;49.422;2022-08-21T16:31:46;35.70;15.90
67194;DHT22;54121;53.508;49.422;2022-08-21T16:34:15;35.60;16.30
67194;DHT22;54121;53.508;49.422;2022-08-21T16:36:42;35.50;16.20
67194;DHT22;54121;53.508;49.422;2022-08-21T16:39:08;35.50;16.60
67194;DHT22;54121;53.508;49.422;2022-08-21T16:41:35;35.30;16.70
67194;DHT22;54121;53.508;49.422;2022-08-21T16:44:02;35.10;17.00
67194;DHT22;54121;53.508;49.422;2022-08-21T16:46:30;35.10;16.90